createdAt,value
2023-04-01T01:18:22.476Z,9.00
2023-04-01T02:53:46.356Z,8.90
2023-04-01T02:56:14.218Z,8.90
2023-04-01T02:58:43.399Z,8.90
2023-04-01T03:01:11.262Z,8.80
2023-04-01T03:03:40.288Z,8.90
2023-04-01T03:06:08.641Z,8.90
2023-04-01T03:08:36.576Z,8.90
2023-04-01T03:11:04.694Z,8.90
2023-04-01T03:13:32.587Z,8.80
2023-04-01T03:16:02.830Z,8.80
2023-04-01T03:18:30.916Z,8.80
2023-04-01T03:20:58.762Z,8.90
2023-04-01T03:23:26.594Z,8.90
2023-04-01T03:25:54.442Z,8.90
2023-04-01T03:28:22.264Z,8.90
2023-04-01T03:30:50.124Z,8.90
2023-04-01T03:33:19.436Z,8.90
2023-04-01T03:35:47.289Z,8.90
2023-04-01T03:38:16.468Z,8.90
2023-04-01T03:40:44.883Z,8.90
2023-04-01T03:43:13.145Z,8.90
2023-04-01T03:45:46.290Z,8.90
2023-04-01T03:48:14.104Z,8.90
2023-04-01T03:50:43.393Z,8.90
2023-04-01T03:53:11.561Z,8.90
2023-04-01T03:55:39.780Z,8.90
2023-04-01T03:58:08.928Z,8.90
2023-04-01T04:00:36.948Z,8.90
2023-04-01T04:03:05.491Z,8.80
2023-04-01T04:05:33.971Z,8.90
2023-04-01T04:08:03.857Z,8.90
2023-04-01T04:10:31.719Z,8.90
2023-04-01T04:12:59.534Z,8.90
2023-04-01T04:15:27.419Z,8.80
2023-04-01T04:17:55.259Z,8.90
2023-04-01T04:20:23.181Z,8.90
2023-04-01T04:22:51.052Z,8.90
2023-04-01T04:25:20.298Z,8.90
2023-04-01T04:27:48.154Z,8.90
2023-04-01T04:30:16.290Z,8.90
2023-04-01T04:32:44.174Z,8.90
2023-04-01T04:35:12.050Z,8.90
2023-04-01T04:37:39.914Z,8.90
2023-04-01T04:40:09.488Z,8.90
2023-04-01T04:42:38.656Z,8.90
2023-04-01T04:45:07.490Z,8.90
2023-04-01T04:47:35.388Z,8.90
2023-04-01T04:50:03.236Z,8.90
2023-04-01T04:52:31.049Z,8.90
2023-04-01T04:54:58.885Z,8.90
2023-04-01T04:57:26.746Z,8.90
2023-04-01T04:59:55.956Z,8.90
2023-04-01T05:02:23.942Z,8.90
2023-04-01T05:04:51.887Z,8.90
2023-04-01T05:07:19.742Z,8.90
2023-04-01T05:09:47.916Z,8.90
2023-04-01T05:12:15.851Z,8.90
2023-04-01T05:14:43.660Z,8.90
2023-04-01T05:17:14.257Z,8.90
2023-04-01T05:19:42.291Z,9.10
2023-04-01T05:22:10.239Z,8.90
2023-04-01T05:24:38.161Z,8.90
2023-04-01T05:27:05.957Z,8.80
2023-04-01T05:29:34.491Z,8.90
2023-04-01T05:49:20.984Z,8.90
2023-04-01T05:51:50.194Z,8.90
2023-04-01T05:54:18.049Z,8.90
2023-04-01T05:56:47.612Z,8.90
2023-04-01T05:59:16.792Z,8.90
2023-04-01T06:01:44.874Z,8.90
2023-04-01T06:04:17.014Z,8.90
2023-04-01T06:06:45.388Z,8.90
2023-04-01T06:09:17.599Z,8.90
2023-04-01T06:12:01.983Z,8.80
2023-04-01T06:14:40.550Z,8.90
2023-04-01T06:17:23.016Z,8.90
2023-04-01T06:19:57.465Z,9.00
2023-04-01T06:23:04.280Z,9.00
2023-04-01T06:25:49.896Z,9.00
2023-04-01T06:28:59.934Z,9.00
2023-04-01T06:31:46.270Z,9.00
2023-04-01T06:34:39.908Z,9.00
2023-04-01T06:37:26.776Z,9.00
2023-04-01T06:40:07.829Z,9.10
2023-04-01T06:42:54.930Z,9.10
2023-04-01T06:45:34.116Z,9.20
2023-04-01T06:48:25.522Z,9.20
2023-04-01T06:51:04.434Z,9.30
2023-04-01T06:53:40.808Z,9.40
2023-04-01T06:56:11.947Z,9.40
2023-04-01T06:58:46.018Z,9.50
2023-04-01T07:01:26.025Z,9.50
2023-04-01T07:03:58.787Z,9.50
2023-04-01T07:06:31.996Z,9.50
2023-04-01T07:09:06.057Z,9.50
2023-04-01T07:11:36.731Z,9.50
2023-04-01T07:14:12.440Z,9.60
2023-04-01T07:16:44.941Z,9.60
2023-04-01T07:19:18.620Z,9.70
2023-04-01T07:21:49.992Z,9.60
2023-04-01T07:24:22.838Z,9.50
2023-04-01T07:26:54.297Z,9.60
2023-04-01T07:29:23.866Z,9.50
2023-04-01T07:32:05.952Z,9.60
2023-04-01T07:34:41.768Z,9.60
2023-04-01T07:37:14.281Z,9.50
2023-04-01T07:39:53.629Z,9.50
2023-04-01T07:42:34.278Z,9.50
2023-04-01T07:45:10.704Z,9.40
2023-04-01T07:47:50.473Z,9.40
2023-04-01T07:50:27.703Z,9.50
2023-04-01T07:53:07.772Z,9.50
2023-04-01T07:55:42.012Z,9.50
2023-04-01T07:58:19.441Z,9.50
2023-04-01T08:00:55.326Z,9.40
2023-04-01T08:03:35.494Z,9.50
2023-04-01T08:06:12.699Z,9.50
2023-04-01T08:08:53.921Z,9.50
2023-04-01T08:11:33.835Z,9.50
2023-04-01T08:14:11.332Z,9.60
2023-04-01T08:16:48.766Z,9.50
2023-04-01T08:19:29.792Z,9.60
2023-04-01T08:22:00.183Z,9.60
2023-04-01T08:24:46.526Z,9.70
2023-04-01T08:27:23.517Z,9.70
2023-04-01T08:29:55.373Z,9.80
2023-04-01T08:32:30.178Z,9.80
2023-04-01T08:35:09.013Z,9.80
2023-04-01T08:37:42.152Z,9.90
2023-04-01T08:40:45.853Z,9.90
2023-04-01T08:43:24.714Z,10.00
2023-04-01T08:46:15.336Z,10.00
2023-04-01T08:48:56.691Z,9.90
2023-04-01T08:51:45.471Z,10.00
2023-04-01T08:54:47.141Z,10.00
2023-04-01T08:57:23.848Z,10.10
2023-04-01T08:59:59.399Z,10.10
2023-04-01T09:02:59.105Z,10.20
2023-04-01T09:06:03.612Z,10.10
2023-04-01T09:08:45.317Z,10.00
2023-04-01T09:11:29.681Z,10.00
2023-04-01T09:14:25.270Z,10.00
